Time;durP1;ratioP1;P1;durP2;ratioP2;P2;SDS_P1;SDS_P2;PMS_P1;PMS_P2;Temp;Humidity;BMP_temperature;BMP_pressure;BME280_temperature;BME280_humidity;BME280_pressure;Samples;Min_cycle;Max_cycle;Signal;HPM_P1;HPM_P2
2022/06/11 11:26:32;;;;;;;4.50;0.90;;;42.80;16.80;;;;;;5060717;28;20444;-77
2022/06/11 11:29:20;;;;;;;4.10;0.90;;;42.40;17.50;;;;;;5040406;28;20029;-76
2022/06/11 11:31:46;;;;;;;4.65;1.08;;;39.40;20.70;;;;;;5043472;28;20403;-78
2022/06/11 11:34:16;;;;;;;3.95;0.90;;;38.20;21.80;;;;;;5045498;28;20607;-78
2022/06/11 11:36:42;;;;;;;4.25;0.98;;;39.70;21.00;;;;;;5044765;28;20041;-78
2022/06/11 11:39:20;;;;;;;3.70;1.02;;;40.70;19.60;;;;;;5047289;28;20064;-77
2022/06/11 11:42:10;;;;;;;4.30;1.00;;;39.90;20.50;;;;;;5044173;28;20029;-76
2022/06/11 11:44:46;;;;;;;4.95;1.00;;;39.50;20.70;;;;;;5050050;28;20056;-78
2022/06/11 11:47:27;;;;;;;3.88;0.88;;;37.80;22.20;;;;;;5042820;28;20032;-78
2022/06/11 11:50:07;;;;;;;4.30;0.90;;;36.40;23.20;;;;;;5042457;28;20029;-78
2022/06/11 11:52:42;;;;;;;4.80;0.90;;;39.70;19.80;;;;;;5047158;28;20514;-79
2022/06/11 11:55:33;;;;;;;4.15;0.90;;;39.80;20.20;;;;;;5043918;28;20112;-78
2022/06/11 11:58:14;;;;;;;4.70;1.00;;;40.90;19.00;;;;;;5040263;28;20487;-76
2022/06/11 12:00:50;;;;;;;4.28;0.90;;;41.70;18.30;;;;;;5040040;28;20061;-76
2022/06/11 12:03:29;;;;;;;3.92;0.90;;;42.30;18.00;;;;;;5048521;28;20028;-77
2022/06/11 12:05:56;;;;;;;4.95;1.10;;;42.50;17.80;;;;;;5042027;28;20116;-76
2022/06/11 12:08:29;;;;;;;6.63;1.10;;;41.90;19.00;;;;;;5042783;28;20031;-76
2022/06/11 12:11:00;;;;;;;3.90;1.00;;;39.60;21.40;;;;;;5044526;28;20021;-76
2022/06/11 12:13:47;;;;;;;5.05;1.10;;;37.70;22.30;;;;;;5041907;28;20302;-76
2022/06/11 12:16:26;;;;;;;2.72;0.88;;;36.90;23.00;;;;;;5043151;28;20093;-75
2022/06/11 12:18:56;;;;;;;4.80;0.90;;;38.80;21.00;;;;;;5038071;28;20021;-75
2022/06/11 12:21:31;;;;;;;4.53;0.98;;;40.10;19.90;;;;;;5042240;28;20059;-75
2022/06/11 12:24:01;;;;;;;4.60;1.20;;;41.10;18.70;;;;;;5050284;28;20387;-75
2022/06/11 12:26:30;;;;;;;3.78;1.00;;;41.80;18.60;;;;;;5043769;28;20036;-74
2022/06/11 12:29:02;;;;;;;4.40;0.90;;;42.20;18.10;;;;;;5045807;28;20086;-76
2022/06/11 12:31:29;;;;;;;3.92;0.98;;;42.60;18.20;;;;;;5045165;28;20143;-76
2022/06/11 12:33:55;;;;;;;6.43;1.02;;;42.80;16.90;;;;;;5043624;28;20033;-75
2022/06/11 12:36:30;;;;;;;4.90;0.98;;;43.10;16.70;;;;;;5040044;28;20112;-74
2022/06/11 12:39:13;;;;;;;3.80;0.90;;;43.20;16.50;;;;;;5032566;28;20562;-75
2022/06/11 12:42:17;;;;;;;3.50;0.90;;;43.40;16.50;;;;;;5034330;28;20049;-75
2022/06/11 12:45:21;;;;;;;2.88;0.80;;;43.60;16.50;;;;;;5022280;28;20061;-75
2022/06/11 12:48:13;;;;;;;4.55;0.90;;;43.60;16.90;;;;;;5025912;28;20124;-76
2022/06/11 12:50:45;;;;;;;5.25;1.00;;;43.50;17.20;;;;;;5034927;28;20036;-75
2022/06/11 12:53:47;;;;;;;5.45;1.52;;;43.30;16.90;;;;;;5023903;28;20045;-74
2022/06/11 12:56:30;;;;;;;3.72;1.10;;;41.60;18.00;;;;;;5006603;28;20041;-76
2022/06/11 12:59:08;;;;;;;3.38;1.05;;;40.80;18.20;;;;;;4997787;28;20099;-76
2022/06/11 13:02:09;;;;;;;3.97;1.00;;;40.80;18.80;;;;;;5004560;28;20076;-76
2022/06/11 13:05:20;;;;;;;3.17;0.90;;;40.90;18.70;;;;;;4900065;29;20049;-75
2022/06/11 13:08:12;;;;;;;4.63;0.90;;;40.60;19.00;;;;;;4907784;29;20044;-75
2022/06/11 13:10:54;;;;;;;6.07;0.90;;;40.10;19.10;;;;;;4911168;29;20543;-75
2022/06/11 13:13:48;;;;;;;5.07;1.17;;;39.60;20.20;;;;;;4910229;29;20046;-75
2022/06/11 13:16:28;;;;;;;4.88;1.17;;;39.00;20.70;;;;;;4894407;29;20135;-75
2022/06/11 13:19:14;;;;;;;6.05;0.90;;;38.60;21.50;;;;;;4907147;29;20104;-75
2022/06/11 13:21:56;;;;;;;3.53;0.90;;;38.30;21.30;;;;;;4906473;29;20040;-86
2022/06/11 13:24:41;;;;;;;4.32;1.02;;;38.10;21.60;;;;;;4908953;29;20040;-81
2022/06/11 13:27:09;;;;;;;3.67;0.90;;;37.70;22.10;;;;;;4907769;29;20175;-75
2022/06/11 13:29:56;;;;;;;4.57;1.20;;;37.50;22.30;;;;;;4907122;29;20043;-74
2022/06/11 13:32:35;;;;;;;4.50;1.10;;;37.20;22.20;;;;;;4912954;29;20055;-74
2022/06/11 13:35:15;;;;;;;4.70;1.05;;;36.80;22.80;;;;;;4943112;29;20078;-74
2022/06/11 13:37:53;;;;;;;4.68;1.00;;;36.80;23.50;;;;;;4955330;28;20027;-74
2022/06/11 13:40:19;;;;;;;5.65;1.17;;;36.60;23.30;;;;;;5030090;28;20533;-74
2022/06/11 13:43:10;;;;;;;3.90;1.02;;;36.50;23.50;;;;;;5031086;28;20037;-74
2022/06/11 13:46:02;;;;;;;4.70;1.13;;;36.30;23.30;;;;;;5035717;28;20040;-74
2022/06/11 13:48:37;;;;;;;3.42;1.00;;;36.10;23.10;;;;;;5031366;28;20078;-74
2022/06/11 13:51:02;;;;;;;5.78;1.02;;;35.90;23.90;;;;;;5031016;28;20066;-74
2022/06/11 13:56:59;;;;;;;4.90;1.00;;;35.70;24.50;;;;;;5020330;28;20087;-74
2022/06/11 14:00:11;;;;;;;4.80;1.00;;;35.50;24.40;;;;;;5027859;28;20061;-75
2022/06/11 14:02:54;;;;;;;4.45;0.93;;;35.30;24.70;;;;;;5000178;28;20038;-74
2022/06/11 14:05:28;;;;;;;4.85;1.00;;;34.80;24.30;;;;;;5000293;28;20038;-74
2022/06/11 14:07:55;;;;;;;4.50;0.98;;;34.40;24.60;;;;;;5004641;28;20472;-74
2022/06/11 14:10:30;;;;;;;5.40;1.20;;;34.00;25.80;;;;;;5001614;28;20026;-74
2022/06/11 14:13:04;;;;;;;5.07;1.02;;;33.70;26.00;;;;;;4991413;28;20038;-74
2022/06/11 14:15:35;;;;;;;4.95;1.20;;;33.40;26.50;;;;;;5003181;28;20175;-74
2022/06/11 14:18:19;;;;;;;6.00;1.10;;;33.30;26.30;;;;;;5001793;28;20022;-74
2022/06/11 14:20:58;;;;;;;5.25;1.00;;;33.20;27.30;;;;;;5001217;28;20041;-74
2022/06/11 14:23:27;;;;;;;4.40;1.30;;;33.10;27.90;;;;;;5008467;28;20117;-74
2022/06/11 14:25:56;;;;;;;5.13;1.25;;;33.00;27.30;;;;;;4996519;28;20316;-74
2022/06/11 14:28:23;;;;;;;6.45;1.10;;;32.80;27.10;;;;;;5005099;28;20064;-75
2022/06/11 14:30:54;;;;;;;6.40;1.20;;;32.60;26.80;;;;;;5000946;28;20045;-74
2022/06/11 14:33:20;;;;;;;6.75;1.20;;;32.30;26.60;;;;;;4994222;28;20066;-74
2022/06/11 14:35:48;;;;;;;8.98;1.23;;;32.20;27.10;;;;;;4991409;28;20122;-74
2022/06/11 14:38:37;;;;;;;5.90;1.23;;;32.00;27.20;;;;;;4994952;28;20065;-74
2022/06/11 14:41:09;;;;;;;5.25;1.10;;;31.90;27.00;;;;;;5041757;28;20026;-74
2022/06/11 14:43:53;;;;;;;5.60;1.30;;;31.70;27.70;;;;;;5038301;28;20501;-75
2022/06/11 14:46:32;;;;;;;8.55;1.55;;;31.50;28.80;;;;;;5031108;28;20047;-74
2022/06/11 14:49:20;;;;;;;10.50;1.98;;;31.40;31.10;;;;;;5032430;28;20041;-74
2022/06/11 14:52:05;;;;;;;9.95;1.92;;;31.30;30.00;;;;;;5028852;28;20037;-73
2022/06/11 14:54:33;;;;;;;11.02;1.90;;;31.20;30.10;;;;;;5027738;28;20026;-74
2022/06/11 14:57:24;;;;;;;10.82;1.90;;;31.10;31.20;;;;;;5017168;28;20075;-74
2022/06/11 15:00:27;;;;;;;9.32;2.00;;;31.10;31.60;;;;;;5026832;28;20040;-73
2022/06/11 15:03:02;;;;;;;12.40;2.05;;;31.00;32.40;;;;;;5028699;28;20381;-74
2022/06/11 15:05:47;;;;;;;13.70;2.33;;;30.70;32.80;;;;;;5041270;28;20041;-74
2022/06/11 15:08:36;;;;;;;12.15;2.22;;;30.20;32.80;;;;;;5018448;28;20075;-74
2022/06/11 15:11:32;;;;;;;13.88;2.17;;;30.20;33.60;;;;;;5028825;28;20047;-74
2022/06/11 15:14:25;;;;;;;13.88;2.10;;;30.10;34.40;;;;;;5028843;28;20139;-74
2022/06/11 15:17:00;;;;;;;11.63;2.33;;;29.90;34.40;;;;;;5040961;28;20036;-74
2022/06/11 15:19:31;;;;;;;11.20;2.22;;;29.80;34.20;;;;;;5028928;28;20038;-74
2022/06/11 15:22:12;;;;;;;12.02;2.10;;;29.70;33.80;;;;;;5029173;28;20527;-74
2022/06/11 15:24:55;;;;;;;12.85;2.08;;;29.70;34.60;;;;;;5026942;28;20048;-74
2022/06/11 15:27:27;;;;;;;13.20;2.50;;;29.60;34.50;;;;;;5030344;28;20495;-74
2022/06/11 15:30:10;;;;;;;11.68;2.35;;;29.60;35.30;;;;;;5027224;28;20332;-73
2022/06/11 15:32:36;;;;;;;10.93;2.15;;;29.50;35.40;;;;;;5026812;28;20076;-73
2022/06/11 15:35:03;;;;;;;13.30;2.28;;;29.40;35.00;;;;;;5043407;28;20045;-73
2022/06/11 15:37:45;;;;;;;11.75;1.95;;;29.20;35.70;;;;;;5040212;28;20033;-73
2022/06/11 15:40:29;;;;;;;15.00;2.40;;;29.10;34.90;;;;;;5039464;28;20545;-73
2022/06/11 15:42:56;;;;;;;16.65;2.45;;;28.90;35.20;;;;;;5038136;28;20106;-73
2022/06/11 15:45:34;;;;;;;14.32;2.67;;;28.80;36.10;;;;;;5030573;28;20044;-73
2022/06/11 15:48:12;;;;;;;14.20;2.30;;;28.60;36.30;;;;;;5026983;28;20044;-73
2022/06/11 15:50:38;;;;;;;12.45;2.10;;;28.40;36.80;;;;;;5026887;28;20036;-73
2022/06/11 15:53:20;;;;;;;11.55;2.08;;;28.30;35.90;;;;;;5030064;28;20042;-74
2022/06/11 15:55:46;;;;;;;12.85;2.42;;;28.10;36.00;;;;;;5039082;28;20068;-73
2022/06/11 15:58:18;;;;;;;13.82;2.05;;;27.60;36.20;;;;;;5027283;28;20613;-74
2022/06/11 16:00:48;;;;;;;13.10;2.10;;;27.50;37.00;;;;;;5035001;28;20029;-74
2022/06/11 16:06:01;;;;;;;10.55;2.03;;;27.00;36.60;;;;;;5029468;28;20051;-73
2022/06/11 16:08:43;;;;;;;14.05;2.03;;;26.90;37.40;;;;;;5034977;28;20025;-73
2022/06/11 16:11:17;;;;;;;13.02;2.10;;;26.90;37.80;;;;;;5042720;28;20425;-73
2022/06/11 16:13:48;;;;;;;27.77;10.02;;;26.90;37.70;;;;;;5027601;28;20048;-74
2022/06/11 16:16:31;;;;;;;11.23;2.00;;;26.90;37.70;;;;;;5043296;28;20124;-75
2022/06/11 16:19:09;;;;;;;10.88;1.70;;;27.00;37.70;;;;;;5041657;28;20029;-74
2022/06/11 16:21:35;;;;;;;9.35;1.90;;;27.00;37.40;;;;;;5034205;28;20029;-74
2022/06/11 16:24:02;;;;;;;13.52;2.25;;;27.00;36.60;;;;;;5036036;28;20029;-74
2022/06/11 16:26:30;;;;;;;21.08;2.38;;;27.10;36.80;;;;;;5030179;28;20038;-73
2022/06/11 16:28:57;;;;;;;11.38;2.15;;;27.10;36.30;;;;;;5045198;28;20036;-74
2022/06/11 16:31:26;;;;;;;14.98;2.30;;;27.10;37.10;;;;;;5031441;28;20033;-73
2022/06/11 16:33:53;;;;;;;15.05;2.10;;;27.00;34.70;;;;;;5038573;28;20103;-73
2022/06/11 16:36:35;;;;;;;14.25;2.28;;;26.90;34.70;;;;;;5041276;28;20102;-74
2022/06/11 16:39:03;;;;;;;9.73;1.75;;;26.90;35.60;;;;;;5036762;28;20021;-73
2022/06/11 16:44:30;;;;;;;10.63;1.83;;;26.70;35.30;;;;;;5027658;28;20044;-74
2022/06/11 16:47:14;;;;;;;8.20;1.50;;;26.60;35.60;;;;;;5046565;28;20025;-74
2022/06/11 16:58:00;;;;;;;11.45;1.90;;;26.50;35.40;;;;;;5029238;28;20095;-74
2022/06/11 17:00:32;;;;;;;10.63;1.92;;;26.40;35.20;;;;;;5029584;28;20495;-73
2022/06/11 17:03:08;;;;;;;10.57;1.80;;;26.20;35.00;;;;;;5030781;28;20043;-73
2022/06/11 17:05:48;;;;;;;17.35;2.50;;;26.00;35.90;;;;;;5042136;28;20420;-74
2022/06/11 17:08:15;;;;;;;9.02;1.63;;;25.90;36.20;;;;;;5014355;28;20034;-74
2022/06/11 17:10:44;;;;;;;9.68;1.67;;;25.70;36.80;;;;;;5047491;28;20114;-74
2022/06/11 17:13:33;;;;;;;7.65;1.52;;;25.60;37.00;;;;;;5033771;28;20033;-74
2022/06/11 17:16:06;;;;;;;10.95;1.90;;;25.60;37.50;;;;;;5028590;28;20029;-75
2022/06/11 17:18:51;;;;;;;11.75;1.50;;;25.60;37.50;;;;;;5035675;28;20557;-74
2022/06/11 17:21:24;;;;;;;11.95;1.80;;;25.60;37.80;;;;;;5039134;28;20236;-74
2022/06/11 17:23:59;;;;;;;10.75;1.80;;;25.60;37.70;;;;;;5028989;28;20052;-73
2022/06/11 17:26:27;;;;;;;10.45;1.77;;;25.70;37.10;;;;;;5033194;28;20069;-74
2022/06/11 17:28:53;;;;;;;9.80;1.77;;;25.60;37.20;;;;;;5028867;28;20036;-74
2022/06/11 17:31:28;;;;;;;8.13;1.80;;;25.50;36.90;;;;;;5035537;28;20186;-74
2022/06/11 17:33:55;;;;;;;11.32;1.80;;;25.40;37.10;;;;;;5038393;28;20024;-74
2022/06/11 17:36:22;;;;;;;10.57;1.85;;;25.40;37.70;;;;;;5039807;28;20025;-75
2022/06/11 17:39:01;;;;;;;11.18;2.00;;;25.30;38.00;;;;;;5033071;28;20029;-75
2022/06/11 17:41:31;;;;;;;12.13;2.13;;;25.30;37.60;;;;;;5021766;28;20033;-74
2022/06/11 17:43:56;;;;;;;8.85;1.63;;;25.20;37.70;;;;;;5022902;28;20083;-76
2022/06/11 17:46:26;;;;;;;9.65;1.90;;;25.10;37.80;;;;;;5028077;28;20049;-75
2022/06/11 17:48:54;;;;;;;13.07;1.77;;;25.00;38.10;;;;;;5026949;28;20072;-75
2022/06/11 17:51:28;;;;;;;15.20;2.08;;;25.00;38.40;;;;;;5024641;28;20519;-76
2022/06/11 17:54:00;;;;;;;8.85;1.63;;;25.00;38.10;;;;;;5024857;28;20092;-75
2022/06/11 17:56:29;;;;;;;10.43;1.85;;;24.90;38.00;;;;;;5016856;28;20021;-77
2022/06/11 17:58:56;;;;;;;11.88;1.77;;;24.80;38.50;;;;;;5028629;28;20025;-74
2022/06/11 18:01:30;;;;;;;12.80;2.00;;;24.70;38.70;;;;;;5028607;28;20108;-78
2022/06/11 18:03:56;;;;;;;8.70;1.65;;;24.70;38.70;;;;;;5026109;28;20021;-73
2022/06/11 18:06:22;;;;;;;12.48;1.90;;;24.70;38.70;;;;;;5032567;28;20043;-75
2022/06/11 18:08:48;;;;;;;9.10;1.50;;;24.60;38.90;;;;;;5030156;28;20089;-73
2022/06/11 18:11:14;;;;;;;13.15;1.90;;;24.60;38.80;;;;;;5027800;28;20510;-73
2022/06/11 18:13:39;;;;;;;8.88;1.90;;;24.40;37.60;;;;;;5031282;28;20059;-75
2022/06/11 18:16:10;;;;;;;10.75;1.83;;;24.40;38.40;;;;;;5030307;28;20033;-75
2022/06/11 18:18:45;;;;;;;8.90;1.42;;;24.30;38.40;;;;;;5034367;28;20423;-76
2022/06/11 18:26:44;;;;;;;9.90;1.55;;;24.00;38.80;;;;;;5022202;28;20627;-73
2022/06/11 18:29:11;;;;;;;10.52;1.80;;;23.90;38.90;;;;;;5020746;28;20093;-75
2022/06/11 18:31:40;;;;;;;17.15;3.58;;;23.90;39.40;;;;;;5023094;28;20029;-73
2022/06/11 18:34:07;;;;;;;9.43;1.60;;;23.90;39.70;;;;;;5022742;28;20132;-71
2022/06/11 18:36:34;;;;;;;10.98;1.63;;;23.90;39.90;;;;;;5029329;28;20025;-75
2022/06/11 18:39:01;;;;;;;10.88;1.60;;;23.90;39.90;;;;;;5027739;28;20040;-76
2022/06/11 18:41:27;;;;;;;11.90;1.92;;;23.90;40.00;;;;;;5027188;28;20049;-72
2022/06/11 18:43:54;;;;;;;10.75;1.58;;;23.90;40.30;;;;;;5025256;28;20041;-73
2022/06/11 18:46:20;;;;;;;9.98;1.80;;;23.90;40.60;;;;;;5027802;28;20049;-72
2022/06/11 18:48:47;;;;;;;11.02;1.65;;;23.80;40.50;;;;;;5027987;28;20029;-79
2022/06/11 18:51:13;;;;;;;10.98;1.70;;;23.80;40.50;;;;;;5029705;28;20059;-76
2022/06/11 18:53:39;;;;;;;8.43;1.73;;;23.80;40.50;;;;;;5037523;28;20029;-76
2022/06/11 18:56:06;;;;;;;24.67;10.98;;;23.70;40.60;;;;;;5028249;28;20033;-76
2022/06/11 18:58:36;;;;;;;9.30;1.30;;;23.70;40.50;;;;;;5028387;28;20057;-76
2022/06/11 19:01:03;;;;;;;12.40;1.90;;;23.60;40.60;;;;;;5028477;28;20040;-76
2022/06/11 19:03:29;;;;;;;7.93;1.58;;;23.60;41.10;;;;;;5027854;28;20026;-76
2022/06/11 19:05:55;;;;;;;8.68;2.00;;;23.50;41.30;;;;;;5031935;28;20040;-76
2022/06/11 19:08:21;;;;;;;9.80;1.60;;;23.50;41.10;;;;;;5026844;28;20020;-75
2022/06/11 19:10:47;;;;;;;10.93;2.13;;;23.50;41.00;;;;;;5037539;28;20033;-75
2022/06/11 19:13:13;;;;;;;8.40;1.60;;;23.40;40.90;;;;;;5026849;28;20029;-76
2022/06/11 19:15:39;;;;;;;8.63;1.60;;;23.30;41.30;;;;;;5025655;28;20380;-75
2022/06/11 19:18:06;;;;;;;10.15;1.83;;;23.30;41.30;;;;;;5029352;28;20120;-75
2022/06/11 19:20:34;;;;;;;12.93;2.15;;;23.20;41.00;;;;;;5029216;28;20717;-75
2022/06/11 19:23:02;;;;;;;12.02;1.80;;;23.10;41.80;;;;;;5027399;28;20448;-75
2022/06/11 19:25:33;;;;;;;9.10;1.77;;;23.10;42.00;;;;;;5035279;28;20049;-76
2022/06/11 19:28:00;;;;;;;13.90;2.38;;;23.10;42.40;;;;;;5026147;28;20136;-75
2022/06/11 19:30:27;;;;;;;7.63;1.42;;;23.00;41.80;;;;;;5023723;28;20033;-76
2022/06/11 19:32:53;;;;;;;10.77;1.63;;;22.90;42.60;;;;;;5028504;28;20025;-74
2022/06/11 19:35:21;;;;;;;9.68;1.70;;;22.90;42.90;;;;;;5026833;28;20385;-74
2022/06/11 19:37:47;;;;;;;10.80;1.73;;;22.80;43.10;;;;;;5026315;28;20024;-74
2022/06/11 19:40:18;;;;;;;10.15;2.00;;;22.70;43.20;;;;;;5039892;28;20036;-75
2022/06/11 19:42:45;;;;;;;11.50;1.70;;;22.60;43.30;;;;;;5033426;28;20022;-75
2022/06/11 19:45:14;;;;;;;16.55;2.25;;;22.60;43.60;;;;;;5030231;28;20099;-74
2022/06/11 19:47:39;;;;;;;12.82;1.88;;;22.50;43.80;;;;;;5035675;28;20064;-75
2022/06/11 19:50:07;;;;;;;14.23;3.33;;;22.40;43.80;;;;;;5031215;28;20069;-75
2022/06/11 19:52:35;;;;;;;9.82;1.75;;;22.30;43.70;;;;;;5038404;28;20033;-75
2022/06/11 19:55:05;;;;;;;13.20;1.90;;;22.30;43.60;;;;;;5041126;28;20104;-75
2022/06/11 19:57:31;;;;;;;;;;;22.20;43.50;;;;;;5029764;28;20029;-76
2022/06/11 19:59:57;;;;;;;8.10;1.98;;;22.10;43.50;;;;;;5028960;28;20255;-75
2022/06/11 20:02:23;;;;;;;10.23;1.67;;;22.10;43.40;;;;;;5029620;28;20037;-75
2022/06/11 20:04:48;;;;;;;10.77;1.60;;;22.00;43.40;;;;;;5034480;28;20397;-76
2022/06/11 20:07:14;;;;;;;11.27;1.98;;;21.90;43.40;;;;;;5037935;28;20060;-75
2022/06/11 20:09:40;;;;;;;10.88;2.05;;;21.90;43.60;;;;;;5029911;28;20025;-76
2022/06/11 20:12:06;;;;;;;9.20;1.67;;;21.80;43.50;;;;;;5029817;28;20038;-75
2022/06/11 20:14:36;;;;;;;14.27;1.90;;;21.80;43.70;;;;;;5034817;28;20130;-75
2022/06/11 20:17:03;;;;;;;14.48;3.05;;;21.70;43.30;;;;;;5031439;28;20091;-75
2022/06/11 20:19:29;;;;;;;8.23;1.60;;;21.60;44.00;;;;;;5044862;28;20084;-75
2022/06/11 20:21:56;;;;;;;13.60;1.83;;;21.60;44.30;;;;;;5030547;28;20132;-75
2022/06/11 20:24:23;;;;;;;8.88;1.55;;;21.50;44.50;;;;;;5027509;28;20053;-74
2022/06/11 20:26:51;;;;;;;14.00;2.67;;;21.50;44.50;;;;;;5030825;28;20029;-74
2022/06/11 20:29:16;;;;;;;10.40;1.90;;;21.40;44.20;;;;;;5035991;28;20029;-74
2022/06/11 20:31:43;;;;;;;9.10;1.73;;;21.30;45.00;;;;;;5023944;28;20084;-74
2022/06/11 20:34:09;;;;;;;10.77;2.25;;;21.30;45.10;;;;;;5030901;28;20033;-74
2022/06/11 20:36:42;;;;;;;10.25;1.90;;;21.30;45.30;;;;;;5028762;28;20123;-74
2022/06/11 20:39:09;;;;;;;10.50;1.98;;;21.20;45.60;;;;;;5032835;28;20116;-74
2022/06/11 20:41:35;;;;;;;9.80;1.90;;;21.20;46.10;;;;;;5029534;28;20059;-74
2022/06/11 20:44:01;;;;;;;10.65;2.22;;;21.10;46.30;;;;;;5042075;28;20025;-74
2022/06/11 20:46:27;;;;;;;11.93;1.80;;;21.00;46.50;;;;;;5036498;28;20544;-73
2022/06/11 20:48:53;;;;;;;10.00;1.83;;;21.00;46.70;;;;;;5026629;28;20075;-73
2022/06/11 20:51:31;;;;;;;13.18;1.90;;;20.90;46.80;;;;;;5027339;28;20056;-73
2022/06/11 20:53:57;;;;;;;10.93;1.70;;;20.90;47.10;;;;;;5031374;28;20830;-74
2022/06/11 20:56:23;;;;;;;9.60;1.77;;;20.80;47.30;;;;;;5030572;28;20083;-74
2022/06/11 20:58:49;;;;;;;12.15;3.70;;;20.80;47.50;;;;;;5032037;28;20021;-74
2022/06/11 21:01:15;;;;;;;12.73;2.53;;;20.70;47.70;;;;;;5028776;28;20086;-74
2022/06/11 21:03:41;;;;;;;12.52;2.15;;;20.70;48.10;;;;;;5022858;28;20036;-72
2022/06/11 21:06:07;;;;;;;13.68;2.25;;;20.60;47.90;;;;;;5026866;28;20047;-72
2022/06/11 21:11:18;;;;;;;14.73;2.33;;;20.50;49.10;;;;;;5015526;28;20036;-73
2022/06/11 21:13:44;;;;;;;24.30;5.35;;;20.40;49.10;;;;;;5035285;28;20025;-72
2022/06/11 21:16:10;;;;;;;15.27;2.60;;;20.40;49.90;;;;;;5041216;28;20037;-73
2022/06/11 21:18:37;;;;;;;13.52;2.10;;;20.40;50.40;;;;;;5034125;28;20024;-72
2022/06/11 21:21:18;;;;;;;12.73;2.15;;;20.30;50.60;;;;;;5031249;28;20491;-73
2022/06/11 21:23:44;;;;;;;13.73;2.15;;;20.20;51.00;;;;;;5027645;28;20029;-73
2022/06/11 21:26:09;;;;;;;17.05;2.78;;;20.20;51.20;;;;;;5041313;28;20426;-72
2022/06/11 21:28:35;;;;;;;11.55;2.03;;;20.20;51.50;;;;;;5036100;28;20025;-72
2022/06/11 21:31:02;;;;;;;24.35;2.83;;;20.10;51.60;;;;;;5036642;28;20051;-73
2022/06/11 21:33:27;;;;;;;14.25;2.20;;;20.10;52.00;;;;;;5035934;28;20040;-72
2022/06/11 21:35:53;;;;;;;11.73;2.40;;;20.10;52.20;;;;;;5028206;28;20026;-72
2022/06/11 21:38:19;;;;;;;10.73;2.00;;;20.00;52.40;;;;;;5034623;28;20028;-73
2022/06/11 21:43:28;;;;;;;13.13;2.50;;;20.00;53.10;;;;;;5044683;28;20098;-73
2022/06/11 21:45:54;;;;;;;12.90;1.90;;;19.90;53.40;;;;;;5040084;28;20081;-72
2022/06/11 21:48:20;;;;;;;12.02;2.33;;;19.80;53.80;;;;;;5039205;28;20025;-73
2022/06/11 21:50:48;;;;;;;13.05;2.38;;;19.80;54.30;;;;;;5026238;28;20031;-72
2022/06/11 21:53:13;;;;;;;14.48;2.60;;;19.80;54.70;;;;;;5028508;28;20034;-72
2022/06/11 21:55:39;;;;;;;17.40;2.38;;;19.70;55.10;;;;;;5036458;28;20033;-72
2022/06/11 21:58:05;;;;;;;17.13;2.35;;;19.70;55.40;;;;;;5032478;28;20037;-72
2022/06/11 22:00:40;;;;;;;15.20;2.28;;;19.70;55.60;;;;;;5038209;28;20074;-72
2022/06/11 22:03:10;;;;;;;16.10;2.40;;;19.70;56.00;;;;;;5037061;28;20036;-72
2022/06/11 22:05:36;;;;;;;17.50;2.10;;;19.70;56.20;;;;;;5040845;28;20037;-72
2022/06/11 22:08:02;;;;;;;14.23;2.28;;;19.60;56.70;;;;;;5030524;28;20045;-72
2022/06/11 22:10:28;;;;;;;16.25;2.63;;;19.60;57.00;;;;;;5036928;28;20030;-72
2022/06/11 22:12:54;;;;;;;15.57;2.60;;;19.50;57.20;;;;;;5032242;28;20028;-72
2022/06/11 22:15:20;;;;;;;13.80;2.60;;;19.60;57.30;;;;;;5031449;28;20029;-72
2022/06/11 22:17:46;;;;;;;15.13;2.50;;;19.50;57.40;;;;;;5031384;28;20048;-72
2022/06/11 22:20:12;;;;;;;15.35;2.47;;;19.50;57.70;;;;;;5038986;28;20025;-73
2022/06/11 22:22:38;;;;;;;19.17;2.60;;;19.40;58.00;;;;;;5032213;28;20083;-73
2022/06/11 22:25:09;;;;;;;15.82;2.58;;;19.40;58.40;;;;;;5039892;28;20045;-72
2022/06/11 22:27:35;;;;;;;17.40;2.80;;;19.30;58.50;;;;;;5034619;28;20032;-73
2022/06/11 22:30:01;;;;;;;17.25;2.60;;;19.30;58.80;;;;;;5032603;28;20040;-72
2022/06/11 22:32:34;;;;;;;16.73;2.47;;;19.30;59.10;;;;;;5041414;28;20075;-72
2022/06/11 22:35:02;;;;;;;17.63;2.92;;;19.20;59.30;;;;;;5028213;28;20022;-73
2022/06/11 22:37:28;;;;;;;14.85;2.05;;;19.20;59.60;;;;;;5031867;28;20037;-73
2022/06/11 22:39:55;;;;;;;15.20;2.95;;;19.20;59.80;;;;;;5029986;28;20091;-73
2022/06/11 22:42:22;;;;;;;14.43;2.40;;;19.10;60.30;;;;;;5026441;28;20049;-73
2022/06/11 22:44:48;;;;;;;16.63;2.78;;;19.10;60.60;;;;;;5029081;28;20237;-73
2022/06/11 22:47:14;;;;;;;17.90;2.45;;;19.10;60.90;;;;;;5042687;28;20108;-72
2022/06/11 22:49:40;;;;;;;14.75;2.70;;;19.10;61.10;;;;;;5035365;28;20088;-72
2022/06/11 22:52:06;;;;;;;16.55;2.85;;;19.00;61.50;;;;;;5031438;28;20036;-73
2022/06/11 22:54:32;;;;;;;16.95;3.00;;;19.00;61.80;;;;;;5031304;28;20021;-73
2022/06/11 22:56:58;;;;;;;14.63;2.45;;;19.00;62.00;;;;;;5029182;28;20128;-73
2022/06/11 22:59:24;;;;;;;18.83;3.22;;;18.90;62.20;;;;;;5026488;28;20024;-73
2022/06/11 23:01:50;;;;;;;19.45;2.95;;;18.90;62.40;;;;;;5036041;28;20037;-72
2022/06/11 23:04:16;;;;;;;16.42;2.50;;;18.90;62.50;;;;;;5030744;28;20057;-73
2022/06/11 23:06:43;;;;;;;10.77;2.22;;;18.90;62.80;;;;;;5034541;28;20061;-72
2022/06/11 23:09:09;;;;;;;13.88;2.65;;;18.80;62.90;;;;;;5029242;28;20082;-72
2022/06/11 23:11:34;;;;;;;12.32;2.33;;;18.80;63.10;;;;;;5042561;28;24925;-73
2022/06/11 23:14:00;;;;;;;18.20;3.08;;;18.80;63.30;;;;;;5035669;28;20041;-72
2022/06/11 23:16:26;;;;;;;17.90;2.85;;;18.80;63.60;;;;;;5042801;28;20054;-73
2022/06/11 23:18:53;;;;;;;13.18;2.63;;;18.70;63.70;;;;;;5026239;28;20140;-73
2022/06/11 23:21:23;;;;;;;18.45;2.65;;;18.70;63.90;;;;;;5019076;28;20140;-73
2022/06/11 23:23:50;;;;;;;14.00;3.03;;;18.70;64.10;;;;;;5029992;28;20018;-72
2022/06/11 23:26:22;;;;;;;18.45;2.85;;;18.70;64.20;;;;;;5015107;28;20108;-73
2022/06/11 23:28:48;;;;;;;19.70;2.72;;;18.60;64.50;;;;;;5008396;28;20034;-72
2022/06/11 23:31:15;;;;;;;14.68;2.60;;;18.60;64.60;;;;;;5017432;28;20045;-73
2022/06/11 23:33:41;;;;;;;19.45;3.10;;;18.60;65.70;;;;;;5018163;28;20159;-73
2022/06/11 23:36:07;;;;;;;16.73;2.63;;;18.60;64.40;;;;;;5016183;28;20103;-73
2022/06/11 23:38:34;;;;;;;13.18;2.47;;;18.50;65.10;;;;;;5014724;28;20030;-72
2022/06/11 23:41:03;;;;;;;13.70;2.65;;;18.50;65.20;;;;;;5013936;28;20041;-73
2022/06/11 23:43:29;;;;;;;20.38;3.58;;;18.50;65.50;;;;;;5021241;28;20108;-72
2022/06/11 23:45:55;;;;;;;20.05;2.95;;;18.40;65.50;;;;;;5013033;28;20042;-72
2022/06/11 23:48:30;;;;;;;16.98;2.85;;;18.40;65.70;;;;;;5012209;28;20022;-73
2022/06/11 23:51:01;;;;;;;19.77;3.15;;;18.40;66.00;;;;;;5010500;28;20030;-73
2022/06/11 23:53:28;;;;;;;17.67;2.80;;;18.30;66.30;;;;;;5001891;28;20062;-72
2022/06/11 23:55:54;;;;;;;19.65;3.15;;;18.30;66.40;;;;;;5023852;28;20030;-72
2022/06/11 23:58:22;;;;;;;14.75;2.92;;;18.30;66.70;;;;;;5010801;28;20025;-73
